sensor_id;sensor_type;location;lat;lon;timestamp;pressure;altitude;pressure_sealevel;temperature;humidity
77482;BME280;66582;43.004;-75.010;2023-03-16T00:00:48;100327.71;;;2.04;40.73
77482;BME280;66582;43.004;-75.010;2023-03-16T00:03:14;100341.08;;;0.56;44.70
77482;BME280;66582;43.004;-75.010;2023-03-16T00:05:38;100348.83;;;-1.16;45.36
77482;BME280;66582;43.004;-75.010;2023-03-16T00:08:03;100350.45;;;-0.82;45.38
77482;BME280;66582;43.004;-75.010;2023-03-16T00:10:28;100347.44;;;0.31;46.37
77482;BME280;66582;43.004;-75.010;2023-03-16T00:12:54;100344.93;;;-0.62;47.43
77482;BME280;66582;43.004;-75.010;2023-03-16T00:15:19;100349.40;;;0.97;43.95
77482;BME280;66582;43.004;-75.010;2023-03-16T00:17:43;100350.27;;;1.12;43.82
77482;BME280;66582;43.004;-75.010;2023-03-16T00:20:09;100360.42;;;-0.49;46.83
77482;BME280;66582;43.004;-75.010;2023-03-16T00:22:34;100361.98;;;-0.40;48.08
77482;BME280;66582;43.004;-75.010;2023-03-16T00:24:59;100367.07;;;-2.17;52.90
77482;BME280;66582;43.004;-75.010;2023-03-16T00:27:25;100357.92;;;-0.14;49.24
77482;BME280;66582;43.004;-75.010;2023-03-16T00:29:51;100355.13;;;-0.32;50.43
77482;BME280;66582;43.004;-75.010;2023-03-16T00:32:16;100358.37;;;-0.67;50.54
77482;BME280;66582;43.004;-75.010;2023-03-16T00:34:39;100362.52;;;-1.68;51.24
77482;BME280;66582;43.004;-75.010;2023-03-16T00:37:04;100367.91;;;-2.37;56.12
77482;BME280;66582;43.004;-75.010;2023-03-16T00:39:30;100368.55;;;-1.90;54.56
77482;BME280;66582;43.004;-75.010;2023-03-16T00:41:55;100365.34;;;-1.68;54.53
77482;BME280;66582;43.004;-75.010;2023-03-16T00:44:20;100365.44;;;-2.10;53.82
77482;BME280;66582;43.004;-75.010;2023-03-16T00:46:45;100363.50;;;-1.54;51.76
77482;BME280;66582;43.004;-75.010;2023-03-16T00:49:11;100370.87;;;-3.07;54.79
77482;BME280;66582;43.004;-75.010;2023-03-16T00:51:36;100370.70;;;-2.29;54.63
77482;BME280;66582;43.004;-75.010;2023-03-16T00:54:02;100377.91;;;-2.57;54.81
77482;BME280;66582;43.004;-75.010;2023-03-16T00:56:27;100380.49;;;-1.91;55.11
77482;BME280;66582;43.004;-75.010;2023-03-16T00:58:52;100381.27;;;-1.41;54.22
77482;BME280;66582;43.004;-75.010;2023-03-16T01:01:20;100389.97;;;-2.89;54.58
77482;BME280;66582;43.004;-75.010;2023-03-16T01:03:44;100388.43;;;-2.87;58.58
77482;BME280;66582;43.004;-75.010;2023-03-16T01:06:11;100384.85;;;-2.14;56.67
77482;BME280;66582;43.004;-75.010;2023-03-16T01:08:34;100387.72;;;-2.40;55.18
77482;BME280;66582;43.004;-75.010;2023-03-16T01:11:02;100392.77;;;-2.12;59.11
77482;BME280;66582;43.004;-75.010;2023-03-16T01:13:24;100378.29;;;-0.02;52.70
77482;BME280;66582;43.004;-75.010;2023-03-16T01:15:55;100388.08;;;-1.74;53.83
77482;BME280;66582;43.004;-75.010;2023-03-16T01:18:16;100383.98;;;-1.57;55.00
77482;BME280;66582;43.004;-75.010;2023-03-16T01:20:40;100385.11;;;-0.98;53.01
77482;BME280;66582;43.004;-75.010;2023-03-16T01:23:06;100382.47;;;-1.36;53.19
77482;BME280;66582;43.004;-75.010;2023-03-16T01:25:30;100377.44;;;-0.25;51.55
77482;BME280;66582;43.004;-75.010;2023-03-16T01:27:56;100389.61;;;-2.76;56.82
77482;BME280;66582;43.004;-75.010;2023-03-16T01:30:21;100397.35;;;-2.90;57.89
77482;BME280;66582;43.004;-75.010;2023-03-16T01:32:46;100393.37;;;-2.05;55.46
77482;BME280;66582;43.004;-75.010;2023-03-16T01:35:11;100393.26;;;-2.61;56.65
77482;BME280;66582;43.004;-75.010;2023-03-16T01:37:37;100397.08;;;-2.36;58.22
77482;BME280;66582;43.004;-75.010;2023-03-16T01:40:01;100396.43;;;-3.00;60.89
77482;BME280;66582;43.004;-75.010;2023-03-16T01:42:26;100405.68;;;-3.55;61.21
77482;BME280;66582;43.004;-75.010;2023-03-16T01:44:54;100393.80;;;-2.09;56.27
77482;BME280;66582;43.004;-75.010;2023-03-16T01:47:16;100395.32;;;-1.20;53.99
77482;BME280;66582;43.004;-75.010;2023-03-16T01:49:42;100403.28;;;-3.29;58.33
77482;BME280;66582;43.004;-75.010;2023-03-16T01:52:09;100405.27;;;-3.33;60.05
77482;BME280;66582;43.004;-75.010;2023-03-16T01:54:35;100399.20;;;-1.36;55.92
77482;BME280;66582;43.004;-75.010;2023-03-16T01:57:01;100393.30;;;-0.87;55.20
77482;BME280;66582;43.004;-75.010;2023-03-16T01:59:26;100394.39;;;-1.09;52.65
77482;BME280;66582;43.004;-75.010;2023-03-16T02:01:48;100394.14;;;-2.41;56.30
77482;BME280;66582;43.004;-75.010;2023-03-16T02:04:24;100394.50;;;-1.87;55.75
77482;BME280;66582;43.004;-75.010;2023-03-16T02:06:39;100396.67;;;-1.24;53.55
77482;BME280;66582;43.004;-75.010;2023-03-16T02:09:04;100398.09;;;-2.67;56.87
77482;BME280;66582;43.004;-75.010;2023-03-16T02:11:30;100393.76;;;-1.39;54.08
77482;BME280;66582;43.004;-75.010;2023-03-16T02:13:59;100395.57;;;-0.49;50.67
77482;BME280;66582;43.004;-75.010;2023-03-16T02:16:19;100394.47;;;-1.66;52.89
77482;BME280;66582;43.004;-75.010;2023-03-16T02:18:46;100393.63;;;-1.53;51.57
77482;BME280;66582;43.004;-75.010;2023-03-16T02:21:14;100403.38;;;-3.15;55.04
77482;BME280;66582;43.004;-75.010;2023-03-16T02:23:35;100393.85;;;-2.09;53.98
77482;BME280;66582;43.004;-75.010;2023-03-16T02:26:05;100403.21;;;-3.35;58.36
77482;BME280;66582;43.004;-75.010;2023-03-16T02:28:31;100394.68;;;-1.58;56.96
77482;BME280;66582;43.004;-75.010;2023-03-16T02:30:50;100392.92;;;-1.37;53.62
77482;BME280;66582;43.004;-75.010;2023-03-16T02:33:17;100384.72;;;0.33;50.32
77482;BME280;66582;43.004;-75.010;2023-03-16T02:35:41;100378.44;;;1.49;47.52
77482;BME280;66582;43.004;-75.010;2023-03-16T02:38:06;100398.54;;;-0.94;53.15
77482;BME280;66582;43.004;-75.010;2023-03-16T02:40:33;100387.38;;;0.55;49.64
77482;BME280;66582;43.004;-75.010;2023-03-16T02:43:00;100399.03;;;-0.21;49.48
77482;BME280;66582;43.004;-75.010;2023-03-16T02:45:22;100398.53;;;-0.89;52.58
77482;BME280;66582;43.004;-75.010;2023-03-16T02:47:47;100384.96;;;0.46;49.83
77482;BME280;66582;43.004;-75.010;2023-03-16T02:50:12;100398.88;;;0.48;50.48
77482;BME280;66582;43.004;-75.010;2023-03-16T02:52:38;100402.22;;;0.25;49.61
77482;BME280;66582;43.004;-75.010;2023-03-16T02:55:03;100396.49;;;0.25;48.72
77482;BME280;66582;43.004;-75.010;2023-03-16T02:57:27;100411.23;;;-1.89;57.07
77482;BME280;66582;43.004;-75.010;2023-03-16T02:59:52;100406.22;;;-1.12;56.46
77482;BME280;66582;43.004;-75.010;2023-03-16T03:02:17;100408.38;;;-0.78;54.12
77482;BME280;66582;43.004;-75.010;2023-03-16T03:04:43;100403.08;;;0.90;50.26
77482;BME280;66582;43.004;-75.010;2023-03-16T03:07:08;100410.32;;;-1.12;53.53
77482;BME280;66582;43.004;-75.010;2023-03-16T03:09:34;100409.40;;;-1.43;55.22
77482;BME280;66582;43.004;-75.010;2023-03-16T03:11:59;100403.16;;;-0.30;52.06
77482;BME280;66582;43.004;-75.010;2023-03-16T03:14:25;100407.21;;;-0.53;52.68
77482;BME280;66582;43.004;-75.010;2023-03-16T03:16:50;100409.46;;;-1.65;53.36
77482;BME280;66582;43.004;-75.010;2023-03-16T03:19:15;100405.24;;;0.16;53.06
77482;BME280;66582;43.004;-75.010;2023-03-16T03:21:41;100411.40;;;-0.23;51.06
77482;BME280;66582;43.004;-75.010;2023-03-16T03:24:06;100414.42;;;0.23;51.31
77482;BME280;66582;43.004;-75.010;2023-03-16T03:26:32;100414.96;;;-0.52;52.76
77482;BME280;66582;43.004;-75.010;2023-03-16T03:28:58;100412.90;;;0.12;50.90
77482;BME280;66582;43.004;-75.010;2023-03-16T03:31:22;100420.26;;;-0.90;55.64
77482;BME280;66582;43.004;-75.010;2023-03-16T03:33:47;100422.94;;;-0.81;55.18
77482;BME280;66582;43.004;-75.010;2023-03-16T03:36:12;100417.53;;;-0.85;55.22
77482;BME280;66582;43.004;-75.010;2023-03-16T03:38:37;100418.92;;;0.02;52.40
77482;BME280;66582;43.004;-75.010;2023-03-16T03:41:03;100413.63;;;-0.00;50.93
77482;BME280;66582;43.004;-75.010;2023-03-16T03:43:28;100417.21;;;0.65;50.57
77482;BME280;66582;43.004;-75.010;2023-03-16T03:45:55;100420.43;;;0.15;50.87
77482;BME280;66582;43.004;-75.010;2023-03-16T03:48:17;100423.32;;;-1.15;53.50
77482;BME280;66582;43.004;-75.010;2023-03-16T03:50:43;100421.79;;;-1.87;55.16
77482;BME280;66582;43.004;-75.010;2023-03-16T03:53:08;100430.22;;;-2.81;58.66
77482;BME280;66582;43.004;-75.010;2023-03-16T03:55:33;100418.15;;;-1.68;58.07
77482;BME280;66582;43.004;-75.010;2023-03-16T03:57:58;100413.58;;;-0.20;52.82
77482;BME280;66582;43.004;-75.010;2023-03-16T04:00:23;100415.15;;;0.34;50.89
77482;BME280;66582;43.004;-75.010;2023-03-16T04:02:48;100411.78;;;-0.24;50.14
77482;BME280;66582;43.004;-75.010;2023-03-16T04:05:14;100410.52;;;-0.42;51.39
77482;BME280;66582;43.004;-75.010;2023-03-16T04:07:39;100406.18;;;0.48;50.58
77482;BME280;66582;43.004;-75.010;2023-03-16T04:10:06;100404.94;;;-1.04;51.68
77482;BME280;66582;43.004;-75.010;2023-03-16T04:12:29;100400.01;;;0.16;49.79
77482;BME280;66582;43.004;-75.010;2023-03-16T04:14:54;100392.72;;;1.60;48.04
77482;BME280;66582;43.004;-75.010;2023-03-16T04:17:19;100382.43;;;2.13;46.12
77482;BME280;66582;43.004;-75.010;2023-03-16T04:19:45;100382.20;;;2.45;45.44
77482;BME280;66582;43.004;-75.010;2023-03-16T04:22:10;100388.48;;;2.23;45.21
77482;BME280;66582;43.004;-75.010;2023-03-16T04:24:35;100400.32;;;-0.32;50.62
77482;BME280;66582;43.004;-75.010;2023-03-16T04:27:00;100399.82;;;-0.51;50.68
77482;BME280;66582;43.004;-75.010;2023-03-16T04:29:26;100395.54;;;-0.22;50.21
77482;BME280;66582;43.004;-75.010;2023-03-16T04:31:51;100397.50;;;-0.40;50.93
77482;BME280;66582;43.004;-75.010;2023-03-16T04:34:16;100398.14;;;-0.10;49.74
77482;BME280;66582;43.004;-75.010;2023-03-16T04:36:41;100392.57;;;0.43;48.69
77482;BME280;66582;43.004;-75.010;2023-03-16T04:39:06;100391.81;;;0.89;47.68
77482;BME280;66582;43.004;-75.010;2023-03-16T04:41:32;100400.50;;;0.33;48.67
77482;BME280;66582;43.004;-75.010;2023-03-16T04:43:56;100407.83;;;-0.51;50.77
77482;BME280;66582;43.004;-75.010;2023-03-16T04:46:21;100400.39;;;1.52;46.68
77482;BME280;66582;43.004;-75.010;2023-03-16T04:48:46;100401.43;;;0.76;46.28
77482;BME280;66582;43.004;-75.010;2023-03-16T04:51:12;100406.81;;;-0.47;49.69
77482;BME280;66582;43.004;-75.010;2023-03-16T04:53:37;100406.36;;;0.13;47.74
77482;BME280;66582;43.004;-75.010;2023-03-16T04:56:02;100398.36;;;1.37;45.59
77482;BME280;66582;43.004;-75.010;2023-03-16T04:58:27;100399.65;;;1.23;45.88
77482;BME280;66582;43.004;-75.010;2023-03-16T05:00:53;100399.93;;;0.79;45.53
77482;BME280;66582;43.004;-75.010;2023-03-16T05:03:18;100404.92;;;1.54;45.03
77482;BME280;66582;43.004;-75.010;2023-03-16T05:05:45;100406.01;;;0.96;46.57
77482;BME280;66582;43.004;-75.010;2023-03-16T05:08:09;100410.73;;;0.30;47.50
77482;BME280;66582;43.004;-75.010;2023-03-16T05:10:34;100414.40;;;-1.91;51.25
77482;BME280;66582;43.004;-75.010;2023-03-16T05:12:59;100410.77;;;0.96;46.37
77482;BME280;66582;43.004;-75.010;2023-03-16T05:15:24;100405.75;;;1.51;45.14
77482;BME280;66582;43.004;-75.010;2023-03-16T05:17:49;100425.56;;;-2.62;51.94
77482;BME280;66582;43.004;-75.010;2023-03-16T05:20:14;100423.76;;;-1.35;52.42
77482;BME280;66582;43.004;-75.010;2023-03-16T05:22:40;100433.15;;;-3.48;55.33
77482;BME280;66582;43.004;-75.010;2023-03-16T05:25:06;100423.27;;;-0.95;52.01
77482;BME280;66582;43.004;-75.010;2023-03-16T05:27:30;100422.44;;;-0.83;50.44
77482;BME280;66582;43.004;-75.010;2023-03-16T05:29:55;100419.12;;;-0.96;50.27
77482;BME280;66582;43.004;-75.010;2023-03-16T05:32:20;100430.95;;;-4.05;55.29
77482;BME280;66582;43.004;-75.010;2023-03-16T05:34:45;100415.59;;;-3.12;55.87
77482;BME280;66582;43.004;-75.010;2023-03-16T05:37:10;100423.96;;;-4.18;57.42
77482;BME280;66582;43.004;-75.010;2023-03-16T05:39:36;100425.30;;;-3.49;57.20
77482;BME280;66582;43.004;-75.010;2023-03-16T05:42:01;100414.92;;;-1.75;53.62
77482;BME280;66582;43.004;-75.010;2023-03-16T05:44:26;100426.57;;;-3.94;55.79
77482;BME280;66582;43.004;-75.010;2023-03-16T05:46:52;100428.11;;;-4.72;58.58
77482;BME280;66582;43.004;-75.010;2023-03-16T05:49:16;100429.81;;;-5.01;59.50
77482;BME280;66582;43.004;-75.010;2023-03-16T05:51:42;100429.11;;;-3.23;57.12
77482;BME280;66582;43.004;-75.010;2023-03-16T05:54:08;100436.32;;;-3.96;58.38
77482;BME280;66582;43.004;-75.010;2023-03-16T05:56:32;100432.62;;;-3.02;57.28
77482;BME280;66582;43.004;-75.010;2023-03-16T05:58:58;100440.52;;;-3.89;62.11
77482;BME280;66582;43.004;-75.010;2023-03-16T06:01:24;100445.00;;;-4.89;60.48
77482;BME280;66582;43.004;-75.010;2023-03-16T06:03:49;100439.83;;;-4.31;60.54
77482;BME280;66582;43.004;-75.010;2023-03-16T06:06:14;100439.37;;;-3.87;61.35
77482;BME280;66582;43.004;-75.010;2023-03-16T06:08:38;100428.10;;;-5.05;64.10
77482;BME280;66582;43.004;-75.010;2023-03-16T06:11:04;100423.85;;;-4.74;62.74
77482;BME280;66582;43.004;-75.010;2023-03-16T06:13:29;100415.85;;;-2.90;59.20
77482;BME280;66582;43.004;-75.010;2023-03-16T06:15:54;100404.51;;;-1.98;56.69
77482;BME280;66582;43.004;-75.010;2023-03-16T06:18:19;100396.25;;;0.05;51.07
77482;BME280;66582;43.004;-75.010;2023-03-16T06:20:45;100393.48;;;-0.24;50.47
77482;BME280;66582;43.004;-75.010;2023-03-16T06:23:11;100405.74;;;-2.07;52.87
77482;BME280;66582;43.004;-75.010;2023-03-16T06:25:35;100399.08;;;-0.69;50.58
77482;BME280;66582;43.004;-75.010;2023-03-16T06:28:00;100404.43;;;-1.43;53.46
77482;BME280;66582;43.004;-75.010;2023-03-16T06:30:25;100403.01;;;-2.10;52.85
77482;BME280;66582;43.004;-75.010;2023-03-16T06:32:50;100402.52;;;-0.72;52.66
77482;BME280;66582;43.004;-75.010;2023-03-16T06:35:15;100404.10;;;-0.08;51.00
77482;BME280;66582;43.004;-75.010;2023-03-16T06:37:41;100402.17;;;-0.77;50.76
77482;BME280;66582;43.004;-75.010;2023-03-16T06:40:07;100401.71;;;-1.55;50.79
77482;BME280;66582;43.004;-75.010;2023-03-16T06:42:31;100401.23;;;-0.24;50.67
77482;BME280;66582;43.004;-75.010;2023-03-16T06:44:56;100400.79;;;0.28;48.85
77482;BME280;66582;43.004;-75.010;2023-03-16T06:47:22;100404.96;;;-0.51;50.69
77482;BME280;66582;43.004;-75.010;2023-03-16T06:49:46;100391.71;;;0.76;49.81
77482;BME280;66582;43.004;-75.010;2023-03-16T06:52:13;100389.11;;;0.47;48.12
77482;BME280;66582;43.004;-75.010;2023-03-16T06:54:37;100397.05;;;-0.57;50.09
77482;BME280;66582;43.004;-75.010;2023-03-16T06:57:02;100402.84;;;-0.84;54.45
77482;BME280;66582;43.004;-75.010;2023-03-16T06:59:28;100397.94;;;-1.24;53.74
77482;BME280;66582;43.004;-75.010;2023-03-16T07:01:52;100394.99;;;-2.12;57.63
77482;BME280;66582;43.004;-75.010;2023-03-16T07:04:17;100396.47;;;-2.28;58.88
77482;BME280;66582;43.004;-75.010;2023-03-16T07:06:43;100389.49;;;-1.84;58.41
77482;BME280;66582;43.004;-75.010;2023-03-16T07:09:08;100393.87;;;-2.99;64.74
77482;BME280;66582;43.004;-75.010;2023-03-16T07:11:33;100394.37;;;-2.22;61.20
77482;BME280;66582;43.004;-75.010;2023-03-16T07:13:58;100394.42;;;-3.46;64.28
77482;BME280;66582;43.004;-75.010;2023-03-16T07:16:23;100378.64;;;-1.53;60.03
77482;BME280;66582;43.004;-75.010;2023-03-16T07:18:49;100381.03;;;-1.58;60.07
77482;BME280;66582;43.004;-75.010;2023-03-16T07:21:14;100374.95;;;-1.29;59.72
77482;BME280;66582;43.004;-75.010;2023-03-16T07:23:40;100371.74;;;-0.96;56.82
77482;BME280;66582;43.004;-75.010;2023-03-16T07:26:06;100372.06;;;-2.08;60.41
77482;BME280;66582;43.004;-75.010;2023-03-16T07:28:31;100370.60;;;-1.31;57.39
77482;BME280;66582;43.004;-75.010;2023-03-16T07:30:55;100377.39;;;-2.07;58.45
77482;BME280;66582;43.004;-75.010;2023-03-16T07:33:21;100370.04;;;-0.97;57.15
77482;BME280;66582;43.004;-75.010;2023-03-16T07:35:46;100361.37;;;0.70;53.28
77482;BME280;66582;43.004;-75.010;2023-03-16T07:38:11;100355.97;;;0.43;52.60
77482;BME280;66582;43.004;-75.010;2023-03-16T07:40:36;100370.04;;;-1.78;56.88
77482;BME280;66582;43.004;-75.010;2023-03-16T07:43:02;100369.75;;;-0.71;55.29
77482;BME280;66582;43.004;-75.010;2023-03-16T07:45:27;100366.02;;;-0.83;53.84
77482;BME280;66582;43.004;-75.010;2023-03-16T07:47:52;100350.86;;;1.67;49.61
77482;BME280;66582;43.004;-75.010;2023-03-16T07:50:17;100351.48;;;0.32;51.08
77482;BME280;66582;43.004;-75.010;2023-03-16T07:52:42;100359.79;;;-1.14;53.84
77482;BME280;66582;43.004;-75.010;2023-03-16T07:55:08;100357.12;;;-1.56;56.08
77482;BME280;66582;43.004;-75.010;2023-03-16T07:57:33;100356.31;;;-2.31;55.88
77482;BME280;66582;43.004;-75.010;2023-03-16T07:59:58;100362.78;;;-2.12;59.37
77482;BME280;66582;43.004;-75.010;2023-03-16T08:02:24;100371.54;;;-3.95;64.64
77482;BME280;66582;43.004;-75.010;2023-03-16T08:04:48;100361.43;;;-3.33;63.51
77482;BME280;66582;43.004;-75.010;2023-03-16T08:07:16;100350.39;;;-1.96;59.34
77482;BME280;66582;43.004;-75.010;2023-03-16T08:09:39;100345.26;;;-1.08;55.90
77482;BME280;66582;43.004;-75.010;2023-03-16T08:12:06;100346.70;;;-1.49;55.87
77482;BME280;66582;43.004;-75.010;2023-03-16T08:14:30;100351.54;;;-2.94;62.18
77482;BME280;66582;43.004;-75.010;2023-03-16T08:16:54;100355.41;;;-3.10;63.20
77482;BME280;66582;43.004;-75.010;2023-03-16T08:19:20;100354.56;;;-3.47;65.80
77482;BME280;66582;43.004;-75.010;2023-03-16T08:21:45;100355.92;;;-3.51;63.99
77482;BME280;66582;43.004;-75.010;2023-03-16T08:24:10;100352.47;;;-2.42;60.84
77482;BME280;66582;43.004;-75.010;2023-03-16T08:26:36;100348.36;;;-3.42;64.57
77482;BME280;66582;43.004;-75.010;2023-03-16T08:29:00;100350.00;;;-3.68;67.08
77482;BME280;66582;43.004;-75.010;2023-03-16T08:31:26;100351.08;;;-4.73;72.23
77482;BME280;66582;43.004;-75.010;2023-03-16T08:33:51;100350.71;;;-4.53;72.79
77482;BME280;66582;43.004;-75.010;2023-03-16T08:36:17;100339.56;;;-3.59;69.45
77482;BME280;66582;43.004;-75.010;2023-03-16T08:38:41;100340.39;;;-4.13;72.83
77482;BME280;66582;43.004;-75.010;2023-03-16T08:41:07;100334.90;;;-3.61;68.16
77482;BME280;66582;43.004;-75.010;2023-03-16T08:43:32;100338.44;;;-4.05;72.67
77482;BME280;66582;43.004;-75.010;2023-03-16T08:45:57;100329.91;;;-2.52;66.75
77482;BME280;66582;43.004;-75.010;2023-03-16T08:48:23;100331.68;;;-4.01;70.32
77482;BME280;66582;43.004;-75.010;2023-03-16T08:50:48;100329.60;;;-4.78;73.54
77482;BME280;66582;43.004;-75.010;2023-03-16T08:53:14;100329.75;;;-3.10;70.90
77482;BME280;66582;43.004;-75.010;2023-03-16T08:55:38;100326.73;;;-2.99;67.89
77482;BME280;66582;43.004;-75.010;2023-03-16T08:58:03;100339.02;;;-3.51;70.26
77482;BME280;66582;43.004;-75.010;2023-03-16T09:00:28;100336.29;;;-3.14;65.70
77482;BME280;66582;43.004;-75.010;2023-03-16T09:02:53;100337.33;;;-2.29;65.64
77482;BME280;66582;43.004;-75.010;2023-03-16T09:05:18;100334.40;;;-1.68;60.02
77482;BME280;66582;43.004;-75.010;2023-03-16T09:07:44;100336.17;;;-2.98;62.95
77482;BME280;66582;43.004;-75.010;2023-03-16T09:10:13;100332.41;;;-1.93;60.97
77482;BME280;66582;43.004;-75.010;2023-03-16T09:12:35;100330.20;;;-0.72;56.72
77482;BME280;66582;43.004;-75.010;2023-03-16T09:15:00;100330.15;;;-0.88;58.71
77482;BME280;66582;43.004;-75.010;2023-03-16T09:17:25;100339.46;;;-2.05;61.47
77482;BME280;66582;43.004;-75.010;2023-03-16T09:19:50;100334.08;;;-0.95;57.68
77482;BME280;66582;43.004;-75.010;2023-03-16T09:22:16;100342.37;;;-1.11;57.40
77482;BME280;66582;43.004;-75.010;2023-03-16T09:24:40;100345.12;;;-1.14;57.63
77482;BME280;66582;43.004;-75.010;2023-03-16T09:27:06;100347.87;;;-0.74;58.57
77482;BME280;66582;43.004;-75.010;2023-03-16T09:29:32;100349.21;;;-0.99;57.91
77482;BME280;66582;43.004;-75.010;2023-03-16T09:31:57;100348.86;;;0.15;54.67
77482;BME280;66582;43.004;-75.010;2023-03-16T09:34:23;100355.53;;;-0.92;56.85
77482;BME280;66582;43.004;-75.010;2023-03-16T09:36:48;100359.31;;;-0.40;56.48
77482;BME280;66582;43.004;-75.010;2023-03-16T09:39:13;100351.07;;;0.72;53.97
77482;BME280;66582;43.004;-75.010;2023-03-16T09:41:45;100348.19;;;1.34;51.28
77482;BME280;66582;43.004;-75.010;2023-03-16T09:44:11;100361.66;;;0.64;51.81
77482;BME280;66582;43.004;-75.010;2023-03-16T09:46:31;100363.41;;;-0.91;56.43
77482;BME280;66582;43.004;-75.010;2023-03-16T09:48:56;100362.28;;;-0.15;55.09
77482;BME280;66582;43.004;-75.010;2023-03-16T09:51:26;100357.44;;;0.55;53.24
77482;BME280;66582;43.004;-75.010;2023-03-16T09:53:45;100352.60;;;1.86;50.45
77482;BME280;66582;43.004;-75.010;2023-03-16T09:56:13;100356.48;;;1.82;50.22
77482;BME280;66582;43.004;-75.010;2023-03-16T09:58:35;100350.88;;;2.81;46.77
77482;BME280;66582;43.004;-75.010;2023-03-16T10:01:11;100358.21;;;1.04;50.99
77482;BME280;66582;43.004;-75.010;2023-03-16T10:05:57;100363.12;;;1.87;50.70
77482;BME280;66582;43.004;-75.010;2023-03-16T10:08:21;100370.83;;;0.74;52.18
77482;BME280;66582;43.004;-75.010;2023-03-16T10:11:00;100378.20;;;0.75;53.12
77482;BME280;66582;43.004;-75.010;2023-03-16T10:13:15;100372.74;;;2.10;50.81
77482;BME280;66582;43.004;-75.010;2023-03-16T10:15:35;100368.17;;;2.24;48.68
77482;BME280;66582;43.004;-75.010;2023-03-16T10:18:01;100368.40;;;2.28;48.77
77482;BME280;66582;43.004;-75.010;2023-03-16T10:20:23;100371.26;;;1.24;50.39
77482;BME280;66582;43.004;-75.010;2023-03-16T10:22:49;100376.01;;;0.95;52.09
77482;BME280;66582;43.004;-75.010;2023-03-16T10:25:19;100375.88;;;0.90;52.28
77482;BME280;66582;43.004;-75.010;2023-03-16T10:27:40;100375.09;;;0.45;52.06
77482;BME280;66582;43.004;-75.010;2023-03-16T10:32:31;100379.34;;;0.24;57.64
77482;BME280;66582;43.004;-75.010;2023-03-16T10:34:57;100380.73;;;-0.08;55.79
77482;BME280;66582;43.004;-75.010;2023-03-16T10:37:19;100384.44;;;-0.21;56.65
77482;BME280;66582;43.004;-75.010;2023-03-16T10:39:43;100374.49;;;1.50;52.58
77482;BME280;66582;43.004;-75.010;2023-03-16T10:42:16;100376.38;;;1.21;51.69
77482;BME280;66582;43.004;-75.010;2023-03-16T10:44:39;100382.70;;;1.02;52.73
77482;BME280;66582;43.004;-75.010;2023-03-16T10:47:02;100392.70;;;-1.55;58.44
77482;BME280;66582;43.004;-75.010;2023-03-16T10:49:28;100389.97;;;-0.92;59.92
77482;BME280;66582;43.004;-75.010;2023-03-16T10:51:53;100390.66;;;-2.22;65.09
77482;BME280;66582;43.004;-75.010;2023-03-16T10:54:25;100393.18;;;-2.61;64.94
77482;BME280;66582;43.004;-75.010;2023-03-16T10:56:42;100390.79;;;-3.05;69.03
77482;BME280;66582;43.004;-75.010;2023-03-16T10:59:15;100391.33;;;-3.22;67.62
77482;BME280;66582;43.004;-75.010;2023-03-16T11:01:33;100393.72;;;-3.72;67.96
77482;BME280;66582;43.004;-75.010;2023-03-16T11:03:58;100399.61;;;-5.16;72.75
77482;BME280;66582;43.004;-75.010;2023-03-16T11:06:25;100396.19;;;-4.03;71.78
77482;BME280;66582;43.004;-75.010;2023-03-16T11:08:51;100381.53;;;-2.86;67.71
77482;BME280;66582;43.004;-75.010;2023-03-16T11:11:18;100393.61;;;-4.44;71.60
77482;BME280;66582;43.004;-75.010;2023-03-16T11:13:44;100386.05;;;-3.67;76.99
77482;BME280;66582;43.004;-75.010;2023-03-16T11:16:16;100381.87;;;-3.65;71.99
77482;BME280;66582;43.004;-75.010;2023-03-16T11:18:34;100386.60;;;-5.04;77.60
77482;BME280;66582;43.004;-75.010;2023-03-16T11:21:01;100384.82;;;-4.66;78.62
77482;BME280;66582;43.004;-75.010;2023-03-16T11:23:31;100375.28;;;-3.17;71.45
77482;BME280;66582;43.004;-75.010;2023-03-16T11:25:49;100367.24;;;-1.56;64.22
77482;BME280;66582;43.004;-75.010;2023-03-16T11:28:17;100365.90;;;-1.79;61.68
77482;BME280;66582;43.004;-75.010;2023-03-16T11:30:40;100368.01;;;-2.92;65.71
77482;BME280;66582;43.004;-75.010;2023-03-16T11:33:03;100364.55;;;-3.22;64.59
77482;BME280;66582;43.004;-75.010;2023-03-16T11:35:32;100363.52;;;-2.43;62.62
77482;BME280;66582;43.004;-75.010;2023-03-16T11:38:04;100374.47;;;-3.81;68.71
77482;BME280;66582;43.004;-75.010;2023-03-16T11:40:31;100369.21;;;-2.37;62.92
77482;BME280;66582;43.004;-75.010;2023-03-16T11:42:52;100370.02;;;-2.87;63.80
77482;BME280;66582;43.004;-75.010;2023-03-16T11:45:17;100375.94;;;-4.01;69.61
77482;BME280;66582;43.004;-75.010;2023-03-16T11:47:50;100368.07;;;-2.52;66.44
77482;BME280;66582;43.004;-75.010;2023-03-16T11:50:04;100366.33;;;-2.03;63.93
77482;BME280;66582;43.004;-75.010;2023-03-16T11:52:34;100361.54;;;-0.83;59.40
77482;BME280;66582;43.004;-75.010;2023-03-16T11:54:58;100362.99;;;0.60;54.86
77482;BME280;66582;43.004;-75.010;2023-03-16T11:57:29;100354.30;;;0.83;51.48
77482;BME280;66582;43.004;-75.010;2023-03-16T11:59:52;100350.37;;;0.59;52.24
77482;BME280;66582;43.004;-75.010;2023-03-16T12:02:19;100361.47;;;-0.96;56.61
77482;BME280;66582;43.004;-75.010;2023-03-16T12:04:43;100362.13;;;-0.87;56.67
77482;BME280;66582;43.004;-75.010;2023-03-16T12:07:09;100357.33;;;0.32;53.12
77482;BME280;66582;43.004;-75.010;2023-03-16T12:11:54;100353.18;;;-1.04;57.04
77482;BME280;66582;43.004;-75.010;2023-03-16T12:14:17;100342.65;;;1.27;50.55
77482;BME280;66582;43.004;-75.010;2023-03-16T12:16:44;100338.51;;;1.45;47.51
77482;BME280;66582;43.004;-75.010;2023-03-16T12:19:09;100336.71;;;1.07;49.57
77482;BME280;66582;43.004;-75.010;2023-03-16T12:21:34;100343.23;;;1.51;49.37
77482;BME280;66582;43.004;-75.010;2023-03-16T12:23:57;100344.68;;;1.52;48.09
77482;BME280;66582;43.004;-75.010;2023-03-16T12:26:23;100351.15;;;2.25;47.34
77482;BME280;66582;43.004;-75.010;2023-03-16T12:28:46;100348.20;;;2.95;45.99